createdAt,value
2022-11-29T00:09:13.424Z,105.63
2022-11-29T00:19:15.383Z,88.10
2022-11-29T00:29:17.912Z,81.22
2022-11-29T00:39:19.731Z,73.72
2022-11-29T00:49:21.746Z,95.00
2022-11-29T00:59:23.649Z,82.15
2022-11-29T01:09:25.656Z,81.25
2022-11-29T01:19:27.534Z,100.20
2022-11-29T01:29:29.399Z,87.35
2022-11-29T01:39:31.515Z,88.18
2022-11-29T01:49:48.644Z,107.82
2022-11-29T01:59:55.718Z,108.13
2022-11-29T02:09:57.651Z,90.05
2022-11-29T02:20:33.009Z,82.15
2022-11-29T02:31:08.417Z,118.20
2022-11-29T02:41:34.953Z,85.68
2022-11-29T02:52:00.336Z,139.00
2022-11-29T03:02:10.337Z,68.70
2022-11-29T03:12:40.005Z,107.85
2022-11-29T03:23:12.938Z,85.63
2022-11-29T03:33:30.240Z,106.43
2022-11-29T03:44:00.078Z,84.53
2022-11-29T03:54:07.871Z,95.13
2022-11-29T04:04:31.574Z,91.10
2022-11-29T04:14:50.702Z,102.10
2022-11-29T04:25:11.279Z,73.80
2022-11-29T04:35:31.273Z,81.50
2022-11-29T04:45:50.276Z,87.05
2022-11-29T04:56:18.244Z,80.07
2022-11-29T05:06:37.580Z,115.40
2022-11-29T05:16:59.287Z,128.53
2022-11-29T05:27:18.513Z,114.68
2022-11-29T05:37:31.024Z,91.93
2022-11-29T05:47:50.400Z,54.90
2022-11-29T05:58:08.905Z,157.43
2022-11-29T06:08:18.789Z,109.82
2022-11-29T06:18:26.434Z,101.60
2022-11-29T06:28:46.640Z,83.07
2022-11-29T06:38:48.932Z,89.03
2022-11-29T06:49:27.109Z,76.13
2022-11-29T06:59:37.914Z,104.53
2022-11-29T07:09:41.316Z,94.43
2022-11-29T07:20:20.250Z,89.53
2022-11-29T07:30:31.607Z,145.30
2022-11-29T07:40:39.262Z,177.73
2022-11-29T07:50:41.218Z,112.55
2022-11-29T08:00:44.518Z,128.55
2022-11-29T08:10:47.028Z,124.03
2022-11-29T08:20:48.939Z,123.80
2022-11-29T08:30:51.079Z,115.88
2022-11-29T08:40:53.035Z,127.38
2022-11-29T08:50:56.163Z,135.80
2022-11-29T09:00:58.295Z,81.93
2022-11-29T09:11:00.467Z,104.63
2022-11-29T09:21:06.099Z,114.45
2022-11-29T09:31:13.358Z,118.55
2022-11-29T09:41:32.358Z,92.07
2022-11-29T09:51:59.689Z,107.05
2022-11-29T10:02:20.917Z,96.50
2022-11-29T10:12:39.864Z,84.60
2022-11-29T10:23:03.342Z,84.57
2022-11-29T10:33:20.250Z,98.10
2022-11-29T10:43:23.880Z,93.63
2022-11-29T10:53:32.708Z,66.95
2022-11-29T11:03:42.985Z,85.03
2022-11-29T11:13:58.561Z,68.85
2022-11-29T11:24:03.651Z,66.07
2022-11-29T11:34:28.052Z,72.85
2022-11-29T11:44:50.130Z,68.35
2022-11-29T11:54:55.740Z,59.63
2022-11-29T12:05:00.653Z,61.85
2022-11-29T12:15:17.855Z,50.00
2022-11-29T12:25:27.034Z,48.83
2022-11-29T12:36:05.903Z,55.72
2022-11-29T12:46:37.200Z,60.13
2022-11-29T12:56:54.011Z,57.15
2022-11-29T13:07:10.495Z,40.97
2022-11-29T13:17:38.399Z,33.25
2022-11-29T13:28:26.290Z,38.90
2022-11-29T13:38:40.307Z,46.95
2022-11-29T13:48:50.749Z,44.25
2022-11-29T13:58:56.163Z,42.22
2022-11-29T14:09:33.043Z,22.55
2022-11-29T14:19:36.835Z,30.60
2022-11-29T14:29:47.658Z,57.20
2022-11-29T14:39:54.734Z,42.47
2022-11-29T14:49:58.491Z,30.33
2022-11-29T15:00:02.153Z,42.22
2022-11-29T15:10:13.495Z,52.17
2022-11-29T15:20:45.999Z,75.63
2022-11-29T15:30:49.658Z,50.72
2022-11-29T15:40:53.645Z,59.85
2022-11-29T15:51:04.475Z,51.15
2022-11-29T16:01:07.208Z,63.70
2022-11-29T16:11:15.886Z,81.97
2022-11-29T16:21:32.271Z,84.00
2022-11-29T16:31:37.606Z,60.67
2022-11-29T16:41:39.468Z,74.13
2022-11-29T16:51:48.095Z,69.18
2022-11-29T17:01:50.380Z,66.20
2022-11-29T17:11:52.906Z,50.33
2022-11-29T17:21:54.839Z,71.20
2022-11-29T17:31:57.178Z,60.28
2022-11-29T17:41:59.085Z,56.40
2022-11-29T17:52:00.917Z,51.00
2022-11-29T18:02:02.899Z,72.25
2022-11-29T18:12:04.807Z,45.97
2022-11-29T18:22:06.722Z,76.30
2022-11-29T18:32:08.885Z,61.08
2022-11-29T18:42:10.775Z,77.10
2022-11-29T18:52:12.615Z,65.70
2022-11-29T19:02:14.524Z,69.22
2022-11-29T19:12:16.408Z,56.30
2022-11-29T19:22:18.280Z,68.88
2022-11-29T19:32:20.219Z,49.35
2022-11-29T19:42:22.005Z,63.53
2022-11-29T19:52:23.890Z,68.40
2022-11-29T20:02:25.913Z,49.53
2022-11-29T20:12:29.652Z,59.30
2022-11-29T20:22:31.592Z,74.20
2022-11-29T20:32:35.163Z,31.30
2022-11-29T20:43:14.957Z,41.95
2022-11-29T20:53:44.137Z,61.70
2022-11-29T21:03:46.094Z,44.53
2022-11-29T21:13:48.605Z,52.92
2022-11-29T21:24:17.917Z,44.15
2022-11-29T21:34:20.550Z,70.20
2022-11-29T21:44:22.619Z,47.40
2022-11-29T21:54:24.435Z,53.00
2022-11-29T22:04:26.273Z,59.80
2022-11-29T22:14:28.075Z,58.13
2022-11-29T22:24:32.688Z,37.55
2022-11-29T22:34:34.503Z,41.80
2022-11-29T22:44:36.368Z,56.55
2022-11-29T22:54:38.182Z,42.60
2022-11-29T23:04:40.004Z,38.25
2022-11-29T23:14:41.795Z,41.58
2022-11-29T23:24:43.660Z,32.30
2022-11-29T23:34:45.747Z,17.38
2022-11-29T23:44:47.883Z,55.85
2022-11-29T23:54:49.975Z,28.40
